• Join FlightAware (Why Join?)
  • Login
  • US Flag 
03:50AM EDT


 

Airport Tracker/Info


-or-


 

Live Flight TrackerFlight Track Log ✈ LOF3377 ✈ 29-Apr-2013 ✈ KGSP - KIAD

Flight Track Log - Related Links

Times and Time Zones

All times are in EDT time to prevent confusion due to time zone crossing. See the LOF3377 flight status page for this flight to view local times or setup timezone preferences in your user account.

Time Position Orientation Groundspeed Altitude Reporting Facility
EDT Latitude Longitude Course Direction KTS MPH feet Rate Location/Type
10:18AM 34.9914 -82.1017 73° East 221 254 4,600  Level Atlanta Center
10:19AM 35.0131 -82.0125 73° East 254 292 7,200 2,400 Climbing Atlanta Center
10:20AM 35.0617 -81.9353 52° Northeast 273 314 9,500 1,920 Climbing Atlanta Center
10:21AM 35.1431 -81.9356 360° North 268 308 11,100 1,500 Climbing Atlanta Center
10:22AM 35.2350 -81.9383 359° North 297 342 12,500 1,500 Climbing Atlanta Center
10:23AM 35.3178 -81.8906 25° Northeast 328 377 14,200 1,740 Climbing Atlanta Center
10:24AM 35.3617 -81.7825 63° Northeast 328 377 16,000 1,740 Climbing Atlanta Center
10:25AM 35.4053 -81.6692 65° Northeast 340 391 17,700 1,500 Climbing Atlanta Center
10:26AM 35.4492 -81.5583 64° Northeast 349 402 19,100 1,200 Climbing Atlanta Center
10:27AM 35.4867 -81.4575 65° Northeast 359 413 20,200 1,200 Climbing Atlanta Center
10:28AM 35.5322 -81.3389 65° Northeast 374 430 21,500 1,260 Climbing Atlanta Center
10:29AM 35.5772 -81.2097 67° East 387 445 22,800 1,440 Climbing Atlanta Center
10:30AM 35.6344 -81.0697 63° Northeast 401 461 24,400 1,500 Climbing Atlanta Center
10:31AM 35.6900 -80.9525 60° Northeast 406 467 25,800 1,320 Climbing Atlanta Center
10:32AM 35.7494 -80.8300 59° Northeast 406 467 27,100 1,260 Climbing Atlanta Center
10:33AM 35.8044 -80.7100 61° Northeast 406 467 28,400 900 Climbing Atlanta Center
10:34AM 35.8578 -80.6003 59° Northeast 412 474 29,000 300 Climbing Atlanta Center
10:35AM 35.9208 -80.4719 59° Northeast 423 487 29,000  Level Atlanta Center
10:36AM 35.9856 -80.3306 60° Northeast 453 521 29,000  Level Atlanta Center
10:37AM 36.0542 -80.1889 59° Northeast 464 534 29,000  Level Atlanta Center
10:39AM 36.1706 -79.9533 58° Northeast 490 564 29,000  Level Washington Center
10:40AM 36.2425 -79.8081 58° Northeast 490 564 29,000  Level Washington Center
10:41AM 36.3014 -79.6694 62° Northeast 499 574 29,000  Level Washington Center
10:42AM 36.3778 -79.5083 59° Northeast 494 568 29,000  Level Washington Center
10:43AM 36.4494 -79.3569 59° Northeast 494 568 29,000  Level Washington Center
10:44AM 36.5122 -79.2203 60° Northeast 494 568 29,000 -600 Level Washington Center
10:45AM 36.5981 -79.0639 56° Northeast 494 568 27,800 -1,320 Descending Washington Center
10:46AM 36.6828 -78.9486 47° Northeast 494 568 26,500 -1,380 Descending Washington Center
10:47AM 36.7889 -78.8106 46° Northeast 499 574 25,100 -780 Descending Washington Center
10:48AM 36.8817 -78.6872 47° Northeast 494 568 25,000 -60 Descending Washington Center
10:49AM 36.9767 -78.5636 46° Northeast 489 563 25,000  Level Washington Center
10:50AM 37.0797 -78.4425 43° Northeast 489 563 25,000  Level Washington Center
10:51AM 37.1842 -78.3525 34° Northeast 494 568 25,000 -360 Level Washington Center
10:52AM 37.2992 -78.2472 36° Northeast 504 580 24,300 -1,020 Descending Washington Center
10:53AM 37.4203 -78.1389 35° Northeast 493 567 23,000 -1,320 Descending Washington Center
10:54AM 37.5244 -78.0453 35° Northeast 481 554 21,700 -1,320 Descending Washington Center
10:55AM 37.6286 -77.9517 35° Northeast 470 541 20,400 -1,380 Descending Washington Center
10:56AM 37.7306 -77.8578 36° Northeast 458 527 19,000 -1,560 Descending Washington Center
10:57AM 37.8261 -77.7714 36° Northeast 448 516 17,400 -1,740 Descending Washington Center
10:58AM 37.9172 -77.6897 35° Northeast 422 486 15,600 -1,740 Descending Washington Center
10:59AM 38.0019 -77.6103 36° Northeast 393 452 13,900 -1,500 Descending Washington Center
11:00AM 38.0761 -77.5436 35° Northeast 380 437 12,600 -1,680 Descending Washington Center
11:01AM 38.1542 -77.4744 35° Northeast 361 415 10,600 -1,320 Descending Washington Center
11:02AM 38.2261 -77.4208 30° Northeast 324 373 10,000 -420 Descending Washington Center
11:03AM 38.2956 -77.3803 25° Northeast 287 330 9,800 -960 Descending Washington Center
11:04AM 38.3667 -77.3553 15° North 275 316 8,100 -1,740 Descending Washington Center
11:05AM 38.4417 -77.3597 357° North 263 303 6,400 -1,560 Descending Washington Center
11:06AM 38.5147 -77.3614 359° North 258 297 5,100 -780 Descending Washington Center
11:07AM 38.5897 -77.3686 356° North 258 297 4,900 -600 Descending Washington Center
11:08AM 38.6667 -77.3667 North 275 316 4,100 -480 Descending Potomac TRACON
11:09AM 38.7333 -77.3500 11° North 275 316 4,100 -60 Level Potomac TRACON
11:10AM 38.8167 -77.3500 360° North 279 321 4,000  Descending Potomac TRACON
11:11AM 38.9000 -77.3500 360° North 274 315 4,100  Climbing Potomac TRACON
11:12AM 38.9667 -77.3500 360° North 274 315 4,100 -120 Level Potomac TRACON
11:13AM 39.0500 -77.3500 360° North 268 308 3,900 -720 Descending Potomac TRACON
11:14AM 39.1333 -77.3500 360° North 278 320 2,700 -720 Descending Potomac TRACON
11:15AM 39.1667 -77.4000 311° West 231 266 2,500 -300 Descending Potomac TRACON
11:16AM 39.1333 -77.4333 218° Southwest 179 206 2,100 -240 Descending Potomac TRACON
11:17AM 39.0833 -77.4333 180° South 166 191 2,100 -60 Level Potomac TRACON
11:18AM 39.0333 -77.4333 180° South 168 193 2,000 -120 Descending Potomac TRACON